Stephen L. — WDE7070 — position and weather

sailwx.info

Track history (hours):
 
Tides and Currents Weather Stations Pressure Air Temp Water Temp Dewpoint Dewpoint Depression Visibility Wind Speed Wind Dir Waves Ship Positions

Stephen L.

Owner: TRIPLE S MARINE, LLC, MORGAN CITY, LA. More information available from US FCC via Universal Licensing System and Coast Guard Vessel Documentation Center.

Last reported at 2015-Mar-27 05:33 UTC. Time now 2015-Mar-29 19:32 UTC.
Position N 29°59' W 090°01'.

Length 20 m.

Type: Ship. MMSI: 367388580.

Date/timePositionNaut miles runAvg speedWind from/ knotsBaromVisibWave heightAir tempDewpointWater temp
2015-Mar-27 05:33N 29°59' W 090°01'2 1.6
2015-Mar-27 04:32N 29°58' W 090°02'0 0.2
2015-Mar-27 03:32N 29°58' W 090°02'0 0.2
2015-Mar-27 02:33N 29°57' W 090°02'0 0.0
2015-Mar-27 01:33N 29°57' W 090°02'0 0.0
2015-Mar-27 00:33N 29°57' W 090°02'0 0.0
2015-Mar-26 23:32N 29°57' W 090°02'0 0.0
2015-Mar-26 22:32N 29°57' W 090°02'0 0.0
2015-Mar-26 21:33N 29°57' W 090°02'0 0.0
2015-Mar-26 20:24N 29°57' W 090°02'0 0.0
2015-Mar-26 19:32N 29°57' W 090°02'0 0.2
2015-Mar-26 18:26N 29°57' W 090°02'36 2.9
2015-Mar-26 06:05N 29°34' W 090°33'3 5.2
2015-Mar-26 05:33N 29°35' W 090°36'6 5.6
2015-Mar-26 04:33N 29°37' W 090°42'4 3.8
2015-Mar-26 03:33N 29°34' W 090°45'  
Track history (hours):
 
Tides and Currents Weather Stations Pressure Air Temp Water Temp Dewpoint Dewpoint Depression Visibility Wind Speed Wind Dir Waves Ship Positions

Stephen L.

Owner: TRIPLE S MARINE, LLC, MORGAN CITY, LA. More information available from US FCC via Universal Licensing System and Coast Guard Vessel Documentation Center.

Last reported at 2015-Mar-27 05:33 UTC. Time now 2015-Mar-29 19:32 UTC.
Position N 29°59' W 090°01'.

Length 20 m.

Type: Ship. MMSI: 367388580.

Date/timePositionNaut miles runAvg speedWind from/ knotsBaromVisibWave heightAir tempDewpointWater temp
2015-Mar-27 05:33N 29°59' W 090°01'2 1.6
2015-Mar-27 04:32N 29°58' W 090°02'0 0.2
2015-Mar-27 03:32N 29°58' W 090°02'0 0.2
2015-Mar-27 02:33N 29°57' W 090°02'0 0.0
2015-Mar-27 01:33N 29°57' W 090°02'0 0.0
2015-Mar-27 00:33N 29°57' W 090°02'0 0.0
2015-Mar-26 23:32N 29°57' W 090°02'0 0.0
2015-Mar-26 22:32N 29°57' W 090°02'0 0.0
2015-Mar-26 21:33N 29°57' W 090°02'0 0.0
2015-Mar-26 20:24N 29°57' W 090°02'0 0.0
2015-Mar-26 19:32N 29°57' W 090°02'0 0.2
2015-Mar-26 18:26N 29°57' W 090°02'36 2.9
2015-Mar-26 06:05N 29°34' W 090°33'3 5.2
2015-Mar-26 05:33N 29°35' W 090°36'6 5.6
2015-Mar-26 04:33N 29°37' W 090°42'4 3.8
2015-Mar-26 03:33N 29°34' W 090°45'  

Dump ship's entire track history